createdAt,value
2017-10-05T00:01:08.299Z,3.13
2017-10-05T00:03:36.296Z,2.73
2017-10-05T00:06:04.151Z,3.60
2017-10-05T00:08:32.130Z,3.03
2017-10-05T00:11:00.173Z,2.93
2017-10-05T00:13:28.262Z,3.60
2017-10-05T00:15:56.030Z,2.73
2017-10-05T00:18:23.975Z,2.40
2017-10-05T00:20:51.863Z,2.70
2017-10-05T00:23:19.739Z,2.40
2017-10-05T00:25:47.612Z,2.60
2017-10-05T00:28:15.667Z,2.67
2017-10-05T00:30:43.575Z,3.00
2017-10-05T00:33:12.226Z,3.10
2017-10-05T00:35:40.226Z,3.33
2017-10-05T00:38:08.248Z,3.20
2017-10-05T00:40:36.122Z,3.97
2017-10-05T00:43:03.973Z,4.13
2017-10-05T00:45:31.875Z,3.40
2017-10-05T00:47:59.813Z,3.20
2017-10-05T00:50:27.797Z,3.67
2017-10-05T00:52:55.849Z,3.53
2017-10-05T00:55:23.918Z,3.57
2017-10-05T00:57:51.812Z,3.17
2017-10-05T01:00:19.676Z,3.00
2017-10-05T01:02:47.534Z,3.20
2017-10-05T01:05:15.424Z,2.93
2017-10-05T01:07:43.559Z,3.57
2017-10-05T01:10:11.457Z,2.93
2017-10-05T01:12:39.398Z,3.17
2017-10-05T01:15:07.466Z,3.13
2017-10-05T01:17:35.287Z,3.40
2017-10-05T01:20:04.014Z,3.50
2017-10-05T01:22:32.131Z,3.27
2017-10-05T01:25:01.412Z,3.70
2017-10-05T01:27:29.561Z,3.10
2017-10-05T01:29:57.448Z,3.60
2017-10-05T01:32:25.350Z,3.20
2017-10-05T01:34:54.186Z,2.93
2017-10-05T01:37:22.261Z,3.87
2017-10-05T01:39:50.144Z,3.10
2017-10-05T01:42:18.029Z,2.67
2017-10-05T01:44:45.818Z,3.93
2017-10-05T01:47:13.724Z,2.70
2017-10-05T01:49:41.525Z,3.50
2017-10-05T01:52:09.481Z,3.23
2017-10-05T01:54:37.424Z,3.07
2017-10-05T01:57:05.312Z,2.90
2017-10-05T01:59:33.258Z,3.47
2017-10-05T02:02:01.331Z,3.60
2017-10-05T02:04:29.321Z,3.97
2017-10-05T02:06:57.268Z,3.20
2017-10-05T02:09:25.137Z,3.03
2017-10-05T02:11:52.919Z,3.00
2017-10-05T02:14:20.869Z,2.80
2017-10-05T02:16:48.940Z,3.37
2017-10-05T02:19:17.485Z,3.10
2017-10-05T02:21:45.288Z,3.30
2017-10-05T02:24:13.201Z,3.40
2017-10-05T02:26:42.043Z,3.53
2017-10-05T02:29:09.848Z,4.07
2017-10-05T02:31:38.596Z,3.30
2017-10-05T02:34:06.562Z,5.20
2017-10-05T02:36:34.370Z,3.60
2017-10-05T02:39:02.963Z,3.10
2017-10-05T02:41:31.627Z,3.77
2017-10-05T02:44:00.174Z,3.40
2017-10-05T02:46:28.251Z,3.43
2017-10-05T02:48:56.028Z,3.00
2017-10-05T02:51:23.994Z,3.50
2017-10-05T02:53:51.764Z,3.10
2017-10-05T02:56:19.549Z,2.97
2017-10-05T02:58:47.789Z,2.73
2017-10-05T03:01:15.746Z,3.20
2017-10-05T03:03:43.550Z,2.83
2017-10-05T03:06:11.407Z,2.63
2017-10-05T03:08:39.356Z,2.70
2017-10-05T03:11:07.324Z,2.60
2017-10-05T03:13:35.411Z,2.67
2017-10-05T03:16:03.283Z,3.47
2017-10-05T03:18:31.299Z,2.70
2017-10-05T03:20:59.609Z,3.00
2017-10-05T03:23:27.369Z,3.00
2017-10-05T03:25:55.204Z,3.07
2017-10-05T03:28:22.961Z,2.90
2017-10-05T03:30:50.913Z,2.50
2017-10-05T03:33:19.579Z,2.70
2017-10-05T03:35:47.427Z,3.27
2017-10-05T03:38:15.389Z,2.67
2017-10-05T03:40:43.256Z,3.10
2017-10-05T03:43:11.329Z,3.13
2017-10-05T03:45:39.136Z,2.90
2017-10-05T03:48:07.814Z,2.93
2017-10-05T03:50:35.746Z,3.33
2017-10-05T03:53:03.614Z,2.87
2017-10-05T03:55:31.480Z,3.20
2017-10-05T04:00:34.586Z,2.77
2017-10-05T04:03:02.655Z,2.67
2017-10-05T04:05:30.550Z,3.03
2017-10-05T04:07:58.519Z,2.80
2017-10-05T04:10:27.166Z,2.40
2017-10-05T04:12:55.011Z,2.77
2017-10-05T04:15:22.845Z,2.77
2017-10-05T04:17:50.690Z,2.17
2017-10-05T04:20:19.858Z,2.30
2017-10-05T04:22:47.754Z,2.30
2017-10-05T04:25:15.735Z,3.13
2017-10-05T04:27:43.591Z,2.97
2017-10-05T04:30:11.438Z,2.50
2017-10-05T04:32:39.498Z,2.10
2017-10-05T04:35:07.370Z,2.03
2017-10-05T04:37:35.358Z,2.20
2017-10-05T04:40:03.838Z,2.03
2017-10-05T04:42:31.713Z,2.33
2017-10-05T04:44:59.679Z,1.73
2017-10-05T04:47:27.446Z,1.70
2017-10-05T04:49:55.394Z,1.80
2017-10-05T04:52:23.278Z,2.00
2017-10-05T04:54:51.147Z,2.33
2017-10-05T04:57:19.099Z,3.10
2017-10-05T04:59:46.981Z,1.87
2017-10-05T05:02:14.850Z,1.70
2017-10-05T05:04:42.605Z,1.90
2017-10-05T05:07:10.474Z,2.10
2017-10-05T05:09:38.533Z,2.43
2017-10-05T05:12:06.397Z,2.20
2017-10-05T05:14:34.395Z,2.23
2017-10-05T05:17:02.354Z,1.87
2017-10-05T05:19:30.326Z,1.83
2017-10-05T05:21:58.599Z,1.70
2017-10-05T05:24:26.397Z,1.90
2017-10-05T05:26:55.131Z,2.00
2017-10-05T05:29:22.931Z,2.17
2017-10-05T05:31:52.659Z,2.03
2017-10-05T05:34:20.686Z,2.00
2017-10-05T05:36:48.750Z,2.80
2017-10-05T05:39:16.714Z,2.10
2017-10-05T05:41:44.684Z,2.30
2017-10-05T05:44:12.568Z,2.20
2017-10-05T05:46:40.562Z,2.53
2017-10-05T05:49:09.219Z,2.43
2017-10-05T05:51:37.723Z,2.60
2017-10-05T05:54:05.556Z,3.10
2017-10-05T05:56:33.550Z,2.57
2017-10-05T05:59:01.700Z,2.60
2017-10-05T06:01:29.682Z,2.87
2017-10-05T06:03:57.547Z,2.50
2017-10-05T06:06:26.648Z,2.60
2017-10-05T06:08:54.596Z,3.17
2017-10-05T06:11:22.488Z,2.47
2017-10-05T06:13:50.419Z,2.90
2017-10-05T06:16:18.307Z,3.20
2017-10-05T06:18:46.281Z,3.13
2017-10-05T06:21:14.239Z,3.97
2017-10-05T06:23:42.949Z,2.87
2017-10-05T06:26:10.728Z,3.30
2017-10-05T06:28:39.559Z,3.00
2017-10-05T06:31:07.543Z,3.00
2017-10-05T06:33:35.619Z,3.13
2017-10-05T06:36:03.589Z,2.63
2017-10-05T06:38:31.969Z,2.13
2017-10-05T06:40:59.950Z,2.63
2017-10-05T06:43:27.900Z,2.57
2017-10-05T06:45:55.986Z,2.67
2017-10-05T06:48:23.987Z,3.17
2017-10-05T06:50:52.808Z,4.37
2017-10-05T06:53:20.883Z,1.97
2017-10-05T06:55:48.707Z,2.20
2017-10-05T06:58:17.377Z,1.73
2017-10-05T07:00:45.528Z,1.77
2017-10-05T07:03:13.504Z,2.20
2017-10-05T07:05:41.271Z,1.67
2017-10-05T07:08:09.168Z,2.20
2017-10-05T07:10:37.124Z,1.80
2017-10-05T07:13:05.367Z,1.80
2017-10-05T07:15:33.256Z,2.20
2017-10-05T07:18:01.120Z,1.70
2017-10-05T07:20:28.913Z,2.70
2017-10-05T07:22:57.549Z,2.07
2017-10-05T07:25:25.524Z,2.40
2017-10-05T07:27:53.273Z,1.57
2017-10-05T07:30:21.151Z,2.00
2017-10-05T07:32:49.033Z,1.80
2017-10-05T07:35:16.908Z,1.87
2017-10-05T07:37:44.854Z,1.70
2017-10-05T07:40:12.749Z,1.37
2017-10-05T07:42:41.987Z,2.00
2017-10-05T07:45:10.099Z,2.37
2017-10-05T07:47:37.871Z,1.77
2017-10-05T07:50:05.871Z,2.43
2017-10-05T07:52:34.972Z,2.40
2017-10-05T07:55:03.736Z,1.80
2017-10-05T07:57:31.676Z,2.10
2017-10-05T07:59:59.463Z,2.03
2017-10-05T08:02:27.835Z,2.20
2017-10-05T08:04:55.593Z,1.73
2017-10-05T08:07:23.553Z,2.80
2017-10-05T08:09:51.448Z,2.40
2017-10-05T08:12:19.384Z,2.03
2017-10-05T08:14:47.360Z,2.30
2017-10-05T08:17:15.341Z,2.17
2017-10-05T08:19:43.109Z,2.17
2017-10-05T08:22:10.858Z,2.30
2017-10-05T08:24:38.658Z,2.40
2017-10-05T08:27:07.320Z,1.70
2017-10-05T08:29:35.281Z,1.80
2017-10-05T08:32:03.453Z,2.13
2017-10-05T08:34:31.416Z,3.60
2017-10-05T08:36:59.299Z,2.90
2017-10-05T08:39:27.248Z,2.30
2017-10-05T08:41:55.470Z,2.50
2017-10-05T08:44:24.211Z,2.20
2017-10-05T08:46:52.286Z,2.13
2017-10-05T08:49:20.269Z,2.67
2017-10-05T08:51:48.265Z,1.70
2017-10-05T08:54:17.149Z,4.10
2017-10-05T08:56:46.002Z,3.00
2017-10-05T08:59:14.585Z,3.03
2017-10-05T09:01:43.474Z,2.03
2017-10-05T09:04:11.445Z,1.50
2017-10-05T09:06:39.474Z,1.73
2017-10-05T09:09:08.255Z,6.43
2017-10-05T09:11:36.893Z,2.60
2017-10-05T09:14:04.858Z,1.90
2017-10-05T09:16:32.821Z,2.47
2017-10-05T09:19:00.799Z,1.80
2017-10-05T09:21:28.763Z,2.40
2017-10-05T09:23:56.731Z,2.40
2017-10-05T09:26:24.702Z,2.03
2017-10-05T09:28:52.880Z,2.53
2017-10-05T09:31:20.843Z,1.77
2017-10-05T09:33:48.813Z,1.97
2017-10-05T09:36:16.781Z,2.13
2017-10-05T09:38:45.507Z,2.00
2017-10-05T09:41:14.254Z,1.83
2017-10-05T09:43:42.305Z,1.83
2017-10-05T09:46:10.502Z,2.07
2017-10-05T09:48:38.470Z,2.30
2017-10-05T09:51:06.570Z,1.80
2017-10-05T09:53:34.509Z,2.10
2017-10-05T09:56:02.582Z,1.67
2017-10-05T09:58:30.652Z,1.80
2017-10-05T10:00:58.725Z,2.00
2017-10-05T10:03:26.694Z,1.97
2017-10-05T10:05:55.406Z,2.00
2017-10-05T10:08:23.343Z,2.20
2017-10-05T10:10:51.316Z,2.07
2017-10-05T10:13:19.285Z,1.80
2017-10-05T10:15:47.357Z,2.20
2017-10-05T10:18:15.265Z,2.00
2017-10-05T10:20:44.218Z,1.90
2017-10-05T10:23:12.123Z,1.97
2017-10-05T10:25:40.872Z,1.70
2017-10-05T10:28:08.845Z,1.83
2017-10-05T10:30:37.419Z,1.63
2017-10-05T10:33:05.595Z,1.67
2017-10-05T10:35:33.567Z,1.73
2017-10-05T10:38:01.538Z,1.70
2017-10-05T10:40:29.995Z,1.43
2017-10-05T10:42:57.993Z,1.73
2017-10-05T10:45:25.956Z,1.27
2017-10-05T10:47:54.026Z,1.43
2017-10-05T10:50:22.951Z,1.77
2017-10-05T10:52:51.811Z,1.73
2017-10-05T10:55:19.782Z,1.43
2017-10-05T10:57:47.848Z,2.00
2017-10-05T11:00:16.022Z,2.03
2017-10-05T11:02:44.195Z,9.90
2017-10-05T11:05:12.368Z,2.30
2017-10-05T11:07:40.236Z,2.40
2017-10-05T11:10:08.057Z,9.07
2017-10-05T11:12:36.615Z,1.77
2017-10-05T11:15:04.567Z,3.53
2017-10-05T11:17:32.935Z,2.20
2017-10-05T11:20:01.017Z,2.03
2017-10-05T11:22:29.079Z,1.90
2017-10-05T11:24:57.145Z,2.00
2017-10-05T11:27:25.218Z,2.20
2017-10-05T11:29:53.187Z,1.90
2017-10-05T11:32:21.254Z,2.27
2017-10-05T11:34:49.225Z,2.50
2017-10-05T11:37:17.193Z,2.20
2017-10-05T11:39:45.164Z,2.27
2017-10-05T11:42:13.146Z,2.63
2017-10-05T11:44:41.106Z,1.70
2017-10-05T11:47:09.074Z,2.10
2017-10-05T11:49:37.348Z,1.53
2017-10-05T11:52:05.422Z,1.97
2017-10-05T11:54:33.386Z,1.53
2017-10-05T11:57:01.356Z,1.90
2017-10-05T11:59:29.323Z,1.90
2017-10-05T12:01:57.299Z,2.27
2017-10-05T12:04:26.008Z,2.20
2017-10-05T12:06:53.948Z,2.00
2017-10-05T12:09:22.018Z,2.20
2017-10-05T12:11:50.140Z,2.10
2017-10-05T12:14:18.878Z,3.70
2017-10-05T12:16:47.056Z,1.70
2017-10-05T12:19:15.158Z,1.77
2017-10-05T12:21:43.797Z,2.30
2017-10-05T12:24:11.984Z,1.83
2017-10-05T12:26:40.158Z,2.20
2017-10-05T12:29:08.228Z,1.97
2017-10-05T12:31:36.257Z,2.03
2017-10-05T12:34:04.266Z,2.00
2017-10-05T12:36:32.246Z,2.50
2017-10-05T12:39:00.198Z,2.53
2017-10-05T12:41:29.199Z,2.10
2017-10-05T12:43:57.104Z,2.00
2017-10-05T12:46:25.782Z,2.40
2017-10-05T12:48:53.822Z,2.27
2017-10-05T12:51:22.715Z,2.60
2017-10-05T12:53:50.928Z,2.87
2017-10-05T12:56:19.620Z,1.90
2017-10-05T12:58:48.312Z,3.03
2017-10-05T13:01:17.047Z,2.30
2017-10-05T13:03:45.121Z,1.83
2017-10-05T13:06:13.087Z,2.73
2017-10-05T13:08:41.055Z,1.40
2017-10-05T13:11:09.031Z,1.93
2017-10-05T13:13:37.096Z,1.80
2017-10-05T13:16:05.011Z,3.00
2017-10-05T13:18:33.751Z,7.43
2017-10-05T13:21:01.721Z,8.40
2017-10-05T13:23:29.661Z,6.00
2017-10-05T13:25:57.680Z,3.23
2017-10-05T13:28:25.731Z,2.33
2017-10-05T13:30:53.556Z,1.53
2017-10-05T13:33:21.713Z,2.50
2017-10-05T13:35:50.589Z,6.47
2017-10-05T13:38:18.533Z,2.10
2017-10-05T13:40:46.598Z,2.17
2017-10-05T13:43:14.875Z,3.47
2017-10-05T13:45:42.843Z,1.90
2017-10-05T13:48:10.914Z,2.10
2017-10-05T13:50:38.882Z,2.37
2017-10-05T13:53:07.812Z,1.70
2017-10-05T13:55:36.577Z,2.33
2017-10-05T13:58:04.539Z,2.20
2017-10-05T14:00:32.538Z,1.70
2017-10-05T14:03:01.290Z,1.50
2017-10-05T14:05:29.396Z,2.10
2017-10-05T14:07:58.251Z,1.47
2017-10-05T14:10:26.219Z,1.47
2017-10-05T14:12:54.406Z,1.60
2017-10-05T14:15:22.383Z,1.60
2017-10-05T14:17:51.993Z,1.77
2017-10-05T14:20:21.616Z,1.30
2017-10-05T14:22:50.322Z,1.20
2017-10-05T14:25:18.231Z,1.33
2017-10-05T14:27:46.309Z,1.20
2017-10-05T14:30:14.477Z,1.50
2017-10-05T14:32:42.546Z,1.63
2017-10-05T14:35:10.528Z,1.57
2017-10-05T14:37:38.411Z,1.67
2017-10-05T14:40:07.275Z,1.50
2017-10-05T14:42:35.258Z,1.40
2017-10-05T14:45:03.137Z,1.60
2017-10-05T14:47:32.717Z,1.40
2017-10-05T14:50:00.815Z,1.43
2017-10-05T14:52:29.564Z,1.30
2017-10-05T14:54:57.647Z,1.30
2017-10-05T14:57:25.532Z,1.50
2017-10-05T14:59:53.493Z,1.43
2017-10-05T15:02:21.368Z,1.30
2017-10-05T15:04:49.330Z,1.30
2017-10-05T15:07:17.598Z,1.10
2017-10-05T15:09:46.486Z,1.27
2017-10-05T15:12:14.364Z,1.90
2017-10-05T15:14:42.234Z,1.60
2017-10-05T15:17:10.127Z,1.97
2017-10-05T15:19:38.221Z,1.60
2017-10-05T15:22:06.041Z,1.40
2017-10-05T15:24:33.975Z,1.30
2017-10-05T15:27:01.858Z,1.77
2017-10-05T15:29:29.742Z,1.97
2017-10-05T15:31:57.709Z,1.77
2017-10-05T15:34:25.557Z,1.70
2017-10-05T15:36:53.335Z,1.30
2017-10-05T15:39:21.310Z,1.40
2017-10-05T15:41:49.224Z,1.60
2017-10-05T15:44:17.020Z,1.20
2017-10-05T15:46:44.901Z,1.53
2017-10-05T15:49:12.691Z,1.77
2017-10-05T15:51:42.389Z,1.73
2017-10-05T15:54:10.950Z,2.20
2017-10-05T15:56:38.954Z,1.37
2017-10-05T15:59:07.608Z,1.60
2017-10-05T16:01:35.379Z,2.07
2017-10-05T16:04:03.449Z,1.50
2017-10-05T16:06:31.222Z,1.77
2017-10-05T16:09:01.043Z,2.00
2017-10-05T16:11:28.897Z,1.57
2017-10-05T16:13:56.891Z,1.40
2017-10-05T16:16:25.133Z,2.03
2017-10-05T16:18:53.041Z,1.30
2017-10-05T16:21:21.678Z,1.27
2017-10-05T16:23:49.651Z,1.80
2017-10-05T16:26:17.520Z,1.63
2017-10-05T16:28:45.407Z,1.20
2017-10-05T16:31:13.567Z,1.50
2017-10-05T16:33:41.468Z,1.87
2017-10-05T16:36:10.141Z,1.77
2017-10-05T16:38:38.999Z,2.20
2017-10-05T16:41:06.877Z,2.97
2017-10-05T16:43:34.645Z,2.40
2017-10-05T16:46:02.701Z,2.23
2017-10-05T16:48:30.569Z,1.73
2017-10-05T16:50:58.917Z,1.73
2017-10-05T16:53:26.810Z,2.17
2017-10-05T16:55:54.907Z,2.40
2017-10-05T16:58:23.066Z,2.60
2017-10-05T17:00:51.027Z,3.50
2017-10-05T17:03:19.738Z,4.33
2017-10-05T17:05:47.500Z,4.30
2017-10-05T17:08:15.444Z,4.00
2017-10-05T17:10:43.439Z,3.60
2017-10-05T17:13:11.524Z,3.47
2017-10-05T17:15:40.276Z,4.17
2017-10-05T17:18:08.062Z,3.20
2017-10-05T17:20:36.109Z,2.20
2017-10-05T17:23:04.626Z,2.67
2017-10-05T17:25:33.277Z,2.73
2017-10-05T17:28:01.860Z,2.97
2017-10-05T17:30:30.118Z,3.67
2017-10-05T17:32:58.414Z,3.30
2017-10-05T17:35:26.410Z,4.03
2017-10-05T17:37:54.363Z,4.10
2017-10-05T17:40:22.351Z,5.10
2017-10-05T17:42:50.287Z,3.90
2017-10-05T17:45:18.720Z,3.60
2017-10-05T17:47:47.455Z,3.10
2017-10-05T17:50:15.337Z,2.63
2017-10-05T17:52:43.289Z,2.83
2017-10-05T17:55:11.360Z,3.50
2017-10-05T17:57:39.161Z,3.00
2017-10-05T18:00:08.017Z,2.60
2017-10-05T18:02:35.967Z,2.90
2017-10-05T18:05:04.078Z,2.00
2017-10-05T18:07:32.024Z,2.73
2017-10-05T18:09:59.993Z,2.00
2017-10-05T18:12:28.201Z,2.40
2017-10-05T18:14:56.955Z,1.80
2017-10-05T18:17:24.903Z,2.03
2017-10-05T18:19:52.799Z,1.90
2017-10-05T18:22:20.916Z,1.57
2017-10-05T18:24:49.851Z,1.70
2017-10-05T18:27:17.989Z,1.50
2017-10-05T18:29:46.127Z,2.20
2017-10-05T18:32:13.983Z,2.17
2017-10-05T18:34:41.854Z,1.83
2017-10-05T18:37:09.811Z,1.40
2017-10-05T18:39:37.780Z,1.70
2017-10-05T18:42:05.862Z,1.50
2017-10-05T18:44:33.719Z,1.83
2017-10-05T18:47:01.675Z,1.93
2017-10-05T18:49:29.559Z,1.87
2017-10-05T18:51:57.537Z,1.73
2017-10-05T18:54:25.524Z,1.80
2017-10-05T18:56:54.268Z,2.83
2017-10-05T18:59:22.010Z,1.83
2017-10-05T19:01:50.023Z,1.87
2017-10-05T19:04:17.794Z,2.27
2017-10-05T19:06:45.588Z,2.83
2017-10-05T19:09:14.433Z,1.70
2017-10-05T19:11:42.608Z,1.77
2017-10-05T19:14:10.619Z,1.80
2017-10-05T19:16:38.677Z,2.00
2017-10-05T19:19:07.752Z,2.20
2017-10-05T19:21:35.830Z,2.33
2017-10-05T19:24:03.818Z,2.43
2017-10-05T19:26:31.841Z,2.67
2017-10-05T19:28:59.941Z,2.23
2017-10-05T19:31:27.905Z,2.40
2017-10-05T19:33:55.854Z,3.00
2017-10-05T19:36:23.844Z,2.47
2017-10-05T19:38:51.900Z,3.33
2017-10-05T19:41:20.193Z,3.20
2017-10-05T19:43:48.239Z,2.77
2017-10-05T19:46:16.464Z,2.73
2017-10-05T19:51:38.369Z,3.13
2017-10-05T19:54:07.384Z,3.80
2017-10-05T19:56:35.249Z,2.97
2017-10-05T19:59:03.213Z,3.20
2017-10-05T20:01:31.079Z,3.07
2017-10-05T20:04:00.397Z,3.60
2017-10-05T20:06:29.164Z,3.40
2017-10-05T20:08:57.018Z,3.93
2017-10-05T20:11:25.103Z,3.73
2017-10-05T20:13:53.804Z,3.67
2017-10-05T20:16:22.665Z,3.70
2017-10-05T20:19:02.015Z,3.20
2017-10-05T20:21:47.611Z,5.17
2017-10-05T20:24:21.642Z,3.80
2017-10-05T20:27:07.988Z,4.70
2017-10-05T20:29:42.062Z,4.53
2017-10-05T20:32:11.609Z,6.43
2017-10-05T20:34:39.497Z,6.30
2017-10-05T20:37:07.590Z,8.20
2017-10-05T20:39:36.244Z,7.37
2017-10-05T20:42:04.098Z,9.23
2017-10-05T20:44:32.173Z,7.47
2017-10-05T20:47:00.160Z,8.17
2017-10-05T20:49:27.951Z,7.63
2017-10-05T20:51:56.510Z,5.13
2017-10-05T20:54:24.472Z,4.97
2017-10-05T20:56:55.214Z,4.70
2017-10-05T20:59:22.961Z,4.00
2017-10-05T21:01:50.840Z,4.57
2017-10-05T21:04:19.608Z,5.90
2017-10-05T21:06:48.997Z,4.87
2017-10-05T21:09:16.978Z,4.57
2017-10-05T21:11:44.760Z,4.87
2017-10-05T21:14:12.624Z,3.80
2017-10-05T21:16:40.407Z,4.77
2017-10-05T21:19:08.268Z,4.43
2017-10-05T21:21:42.216Z,4.60
2017-10-05T21:24:10.348Z,5.53
2017-10-05T21:26:38.109Z,5.60
2017-10-05T21:29:05.980Z,4.63
2017-10-05T21:31:33.921Z,3.80
2017-10-05T21:34:01.710Z,6.30
2017-10-05T21:36:29.577Z,4.73
2017-10-05T21:38:57.335Z,4.60
2017-10-05T21:41:26.105Z,4.73
2017-10-05T21:43:53.908Z,4.10
2017-10-05T21:46:21.650Z,6.30
2017-10-05T21:48:49.470Z,5.90
2017-10-05T21:51:17.331Z,5.03
2017-10-05T21:53:45.090Z,6.47
2017-10-05T21:56:12.923Z,5.47
2017-10-05T21:58:40.786Z,6.37
2017-10-05T22:01:08.646Z,6.10
2017-10-05T22:03:37.327Z,7.00
2017-10-05T22:06:05.295Z,1.50
2017-10-05T22:08:33.164Z,1.27
2017-10-05T22:11:00.892Z,0.90
2017-10-05T22:13:28.779Z,0.77
2017-10-05T22:15:56.641Z,1.13
2017-10-05T22:18:24.426Z,1.17
2017-10-05T22:20:52.282Z,1.30
2017-10-05T22:23:20.867Z,1.20
2017-10-05T22:25:48.618Z,1.73
2017-10-05T22:28:16.411Z,1.50
2017-10-05T22:30:44.352Z,1.67
2017-10-05T22:33:12.165Z,0.93
2017-10-05T22:35:40.739Z,1.27
2017-10-05T22:38:08.496Z,1.03
2017-10-05T22:40:36.360Z,0.97
2017-10-05T22:43:04.263Z,1.00
2017-10-05T22:45:32.062Z,1.40
2017-10-05T22:48:00.131Z,1.40
2017-10-05T22:50:28.646Z,1.30
2017-10-05T22:52:56.580Z,1.57
2017-10-05T22:55:24.368Z,1.80
2017-10-05T22:57:52.229Z,1.60
2017-10-05T23:00:20.057Z,3.33
2017-10-05T23:02:47.860Z,1.70
2017-10-05T23:05:15.652Z,1.57
2017-10-05T23:07:44.207Z,1.50
2017-10-05T23:10:12.177Z,1.90
2017-10-05T23:12:40.054Z,1.70
2017-10-05T23:15:08.020Z,2.60
2017-10-05T23:17:35.781Z,1.97
2017-10-05T23:20:03.803Z,1.30
2017-10-05T23:22:31.697Z,1.57
2017-10-05T23:24:59.584Z,1.70
2017-10-05T23:27:27.346Z,1.90
2017-10-05T23:29:55.081Z,1.70
2017-10-05T23:32:22.872Z,1.67
2017-10-05T23:34:50.628Z,1.83
2017-10-05T23:37:18.420Z,1.60
2017-10-05T23:39:46.264Z,1.57
2017-10-05T23:42:14.134Z,1.70
2017-10-05T23:44:42.392Z,1.60
2017-10-05T23:47:10.274Z,1.97
2017-10-05T23:49:38.034Z,1.90
2017-10-05T23:52:06.570Z,1.90
2017-10-05T23:54:34.380Z,1.63
2017-10-05T23:57:02.344Z,2.00
2017-10-05T23:59:30.324Z,1.40
